Time;durP1;ratioP1;P1;durP2;ratioP2;P2;SDS_P1;SDS_P2;PMS_P1;PMS_P2;Temp;Humidity;BMP_temperature;BMP_pressure;BME280_temperature;BME280_humidity;BME280_pressure;Samples;Min_cycle;Max_cycle;Signal;HPM_P1;HPM_P2
2021/04/27 00:00:36;;;;;;;6.57;3.53;;;;;;;;;;6170662;23;20175;-82
2021/04/27 00:03:41;;;;;;;7.07;3.70;;;;;;;;;;6185222;23;20568;-82
2021/04/27 00:06:45;;;;;;;7.00;3.80;;;;;;;;;;6188863;23;20232;-82
2021/04/27 00:09:50;;;;;;;8.13;3.80;;;;;;;;;;6189709;23;20267;-82
2021/04/27 00:12:55;;;;;;;5.47;3.40;;;;;;;;;;6189256;23;20175;-82
2021/04/27 00:15:59;;;;;;;6.87;3.57;;;;;;;;;;6190026;23;20230;-82
2021/04/27 00:19:08;;;;;;;9.10;3.70;;;;;;;;;;6190778;23;20167;-83
2021/04/27 00:22:12;;;;;;;8.93;3.87;;;;;;;;;;6189584;23;20167;-82
2021/04/27 00:25:18;;;;;;;7.13;3.40;;;;;;;;;;6190412;23;20175;-82
2021/04/27 00:28:23;;;;;;;9.67;3.70;;;;;;;;;;6189867;23;20172;-82
2021/04/27 00:31:28;;;;;;;10.50;4.23;;;;;;;;;;6189942;23;20287;-82
2021/04/27 00:34:32;;;;;;;6.90;3.70;;;;;;;;;;6189852;23;20529;-83
2021/04/27 00:37:36;;;;;;;8.73;3.60;;;;;;;;;;6189718;23;20242;-82
2021/04/27 00:40:42;;;;;;;8.90;3.60;;;;;;;;;;6189182;23;20248;-82
2021/04/27 00:43:46;;;;;;;8.80;4.27;;;;;;;;;;6188366;23;20176;-82
2021/04/27 00:46:52;;;;;;;10.20;4.40;;;;;;;;;;6189452;23;20444;-82
2021/04/27 00:49:57;;;;;;;9.03;4.03;;;;;;;;;;6188877;23;20539;-82
2021/04/27 00:53:02;;;;;;;8.90;4.30;;;;;;;;;;6188530;23;20628;-82
2021/04/27 00:56:07;;;;;;;11.70;4.40;;;;;;;;;;6189029;23;20195;-82
2021/04/27 00:59:12;;;;;;;9.67;3.67;;;;;;;;;;6190401;23;20227;-82
2021/04/27 01:02:17;;;;;;;9.93;4.30;;;;;;;;;;6188244;23;20195;-82
2021/04/27 01:05:22;;;;;;;9.53;4.50;;;;;;;;;;6171750;23;20251;-82
2021/04/27 01:08:30;;;;;;;8.07;3.93;;;;;;;;;;6171693;23;20175;-82
2021/04/27 01:11:41;;;;;;;10.53;4.10;;;;;;;;;;6188862;23;20167;-83
2021/04/27 01:14:46;;;;;;;8.97;4.37;;;;;;;;;;6189308;23;20197;-82
2021/04/27 01:17:51;;;;;;;11.70;4.67;;;;;;;;;;6171115;23;20272;-82
2021/04/27 01:20:58;;;;;;;8.97;4.20;;;;;;;;;;6171257;23;20176;-82
2021/04/27 01:24:11;;;;;;;10.40;4.10;;;;;;;;;;6189554;23;20521;-81
2021/04/27 01:27:18;;;;;;;10.43;4.20;;;;;;;;;;6190510;23;20180;-81
2021/04/27 01:30:22;;;;;;;13.87;4.20;;;;;;;;;;6171458;23;20230;-82
2021/04/27 01:33:28;;;;;;;7.00;3.93;;;;;;;;;;6170648;23;20467;-82
2021/04/27 01:36:33;;;;;;;11.57;4.53;;;;;;;;;;6177703;23;20206;-81
2021/04/27 01:39:38;;;;;;;10.23;4.27;;;;;;;;;;6171141;23;20219;-82
2021/04/27 01:42:44;;;;;;;12.20;4.13;;;;;;;;;;6170649;23;20171;-81
2021/04/27 01:45:50;;;;;;;18.10;4.50;;;;;;;;;;6171336;23;20223;-81
2021/04/27 01:48:55;;;;;;;10.63;4.30;;;;;;;;;;6171391;23;20229;-81
2021/04/27 01:52:01;;;;;;;8.47;3.90;;;;;;;;;;6171009;23;20200;-81
2021/04/27 01:55:21;;;;;;;7.27;3.93;;;;;;;;;;6171343;23;20229;-81
2021/04/27 01:58:27;;;;;;;11.33;4.60;;;;;;;;;;6171427;23;20202;-82
2021/04/27 02:01:31;;;;;;;10.30;4.07;;;;;;;;;;6170758;23;20535;-82
2021/04/27 02:04:36;;;;;;;11.43;4.13;;;;;;;;;;6171413;23;20482;-82
2021/04/27 02:08:00;;;;;;;8.43;4.03;;;;;;;;;;6171290;23;20416;-82
2021/04/27 02:11:09;;;;;;;6.73;3.70;;;;;;;;;;6189109;23;20633;-82
2021/04/27 02:14:15;;;;;;;8.50;4.30;;;;;;;;;;6176581;23;20179;-81
2021/04/27 02:17:22;;;;;;;9.43;3.53;;;;;;;;;;6171051;23;20171;-82
2021/04/27 02:20:28;;;;;;;7.33;4.00;;;;;;;;;;6180708;23;20176;-82
2021/04/27 02:23:53;;;;;;;10.50;4.47;;;;;;;;;;6208932;23;20163;-83
2021/04/27 02:27:02;;;;;;;10.23;5.10;;;;;;;;;;6192422;23;20219;-82
2021/04/27 02:30:12;;;;;;;11.87;3.80;;;;;;;;;;6192357;23;20260;-82
2021/04/27 02:33:18;;;;;;;6.77;4.23;;;;;;;;;;6192136;23;20200;-82
2021/04/27 02:36:23;;;;;;;7.20;3.97;;;;;;;;;;6199329;23;20211;-82
2021/04/27 02:39:36;;;;;;;10.17;4.10;;;;;;;;;;6192802;23;20163;-82
2021/04/27 02:42:41;;;;;;;13.37;4.10;;;;;;;;;;6206187;23;20517;-83
2021/04/27 02:46:00;;;;;;;11.80;4.93;;;;;;;;;;6193219;23;20192;-82
2021/04/27 02:49:10;;;;;;;10.43;5.33;;;;;;;;;;6191700;23;20191;-82
2021/04/27 02:52:18;;;;;;;12.77;4.13;;;;;;;;;;6190790;23;20188;-83
2021/04/27 02:55:35;;;;;;;8.47;4.47;;;;;;;;;;6180938;23;20208;-83
2021/04/27 02:58:39;;;;;;;9.30;3.93;;;;;;;;;;6186497;23;20176;-83
2021/04/27 03:01:44;;;;;;;9.90;4.27;;;;;;;;;;6204941;23;20198;-82
2021/04/27 03:04:53;;;;;;;11.33;4.40;;;;;;;;;;6186901;23;20211;-82
2021/04/27 03:08:10;;;;;;;11.70;4.10;;;;;;;;;;6191064;23;20231;-82
2021/04/27 03:11:15;;;;;;;10.40;4.30;;;;;;;;;;6191832;23;20340;-82
2021/04/27 03:14:20;;;;;;;10.93;3.93;;;;;;;;;;6185819;23;20225;-81
2021/04/27 03:17:27;;;;;;;12.80;4.30;;;;;;;;;;6189977;23;20183;-83
2021/04/27 03:20:35;;;;;;;13.67;4.90;;;;;;;;;;6192911;23;20163;-82
2021/04/27 03:23:55;;;;;;;9.13;4.27;;;;;;;;;;6187173;23;20196;-82
2021/04/27 03:27:00;;;;;;;10.43;4.30;;;;;;;;;;6185411;23;20180;-82
2021/04/27 03:30:25;;;;;;;8.80;3.97;;;;;;;;;;6180044;23;20187;-81
2021/04/27 03:33:37;;;;;;;10.37;4.67;;;;;;;;;;6192224;23;20528;-82
2021/04/27 03:36:42;;;;;;;10.10;4.33;;;;;;;;;;6192397;23;20204;-82
2021/04/27 03:39:46;;;;;;;7.47;3.90;;;;;;;;;;6192841;23;20156;-83
2021/04/27 03:42:51;;;;;;;9.83;4.20;;;;;;;;;;6191169;23;20159;-82
2021/04/27 03:45:56;;;;;;;9.67;4.50;;;;;;;;;;6208544;23;20176;-80
2021/04/27 03:49:02;;;;;;;7.93;4.37;;;;;;;;;;6191012;23;20288;-81
2021/04/27 03:52:07;;;;;;;11.83;4.80;;;;;;;;;;6188136;23;20220;-81
2021/04/27 03:55:12;;;;;;;9.17;4.50;;;;;;;;;;6170804;23;20219;-81
2021/04/27 03:58:17;;;;;;;20.93;5.13;;;;;;;;;;6170974;23;20183;-81
2021/04/27 04:01:21;;;;;;;16.00;4.67;;;;;;;;;;6168613;23;20211;-81
2021/04/27 04:04:26;;;;;;;17.13;4.53;;;;;;;;;;6161546;23;20207;-81
2021/04/27 04:07:48;;;;;;;10.57;5.13;;;;;;;;;;6143966;23;20203;-81
2021/04/27 04:10:58;;;;;;;7.40;4.07;;;;;;;;;;6143586;23;20312;-81
2021/04/27 04:14:03;;;;;;;14.37;5.10;;;;;;;;;;6141311;23;20521;-82
2021/04/27 04:17:18;;;;;;;11.63;4.73;;;;;;;;;;6141523;23;20172;-81
2021/04/27 04:20:25;;;;;;;10.43;4.63;;;;;;;;;;6141023;23;20220;-82
2021/04/27 04:24:04;;;;;;;8.93;4.67;;;;;;;;;;6157537;23;20247;-82
2021/04/27 04:27:10;;;;;;;10.73;4.77;;;;;;;;;;6159324;23;20301;-82
2021/04/27 04:30:23;;;;;;;13.30;4.53;;;;;;;;;;6139939;23;20197;-81
2021/04/27 04:33:27;;;;;;;15.90;4.93;;;;;;;;;;6158177;23;20200;-82
2021/04/27 04:37:11;;;;;;;15.10;4.87;;;;;;;;;;6069663;23;20174;-81
2021/04/27 04:40:35;;;;;;;19.43;5.00;;;;;;;;;;6078627;23;20223;-82
2021/04/27 04:43:58;;;;;;;15.57;4.70;;;;;;;;;;6157758;23;20423;-82
2021/04/27 04:47:29;;;;;;;14.57;5.53;;;;;;;;;;6147336;23;20239;-82
2021/04/27 04:50:56;;;;;;;11.23;5.30;;;;;;;;;;6133962;23;20248;-82
2021/04/27 04:54:11;;;;;;;16.67;4.80;;;;;;;;;;6160386;23;20209;-83
2021/04/27 04:57:15;;;;;;;17.17;6.10;;;;;;;;;;6150630;23;20180;-82
2021/04/27 05:00:21;;;;;;;15.53;5.33;;;;;;;;;;6160179;23;20259;-82
2021/04/27 05:03:45;;;;;;;14.30;5.37;;;;;;;;;;6188335;23;20243;-82
2021/04/27 05:07:11;;;;;;;15.13;5.33;;;;;;;;;;6190177;23;20475;-82
2021/04/27 05:10:34;;;;;;;19.43;5.50;;;;;;;;;;6190381;23;20223;-83
2021/04/27 05:13:55;;;;;;;22.17;9.27;;;;;;;;;;6189533;23;20183;-81
2021/04/27 05:17:00;;;;;;;17.57;5.80;;;;;;;;;;6171797;23;20179;-82
2021/04/27 05:20:05;;;;;;;13.40;5.33;;;;;;;;;;6172747;23;20175;-82
2021/04/27 05:23:15;;;;;;;15.33;5.20;;;;;;;;;;6171347;23;20238;-83
2021/04/27 05:26:25;;;;;;;15.20;5.60;;;;;;;;;;6172011;23;20584;-83
2021/04/27 05:29:30;;;;;;;20.60;5.87;;;;;;;;;;6172919;23;20457;-83
2021/04/27 05:32:35;;;;;;;15.83;5.60;;;;;;;;;;6189478;23;20180;-83
2021/04/27 05:35:41;;;;;;;15.87;6.80;;;;;;;;;;6172250;23;20207;-83
2021/04/27 05:38:45;;;;;;;24.80;7.50;;;;;;;;;;6190745;23;20289;-82
2021/04/27 05:41:54;;;;;;;13.70;5.90;;;;;;;;;;6173095;23;20180;-84
2021/04/27 05:44:58;;;;;;;12.73;4.97;;;;;;;;;;6173509;23;20582;-81
2021/04/27 05:48:02;;;;;;;11.57;5.87;;;;;;;;;;6233093;22;20419;-91
2021/04/27 05:54:26;;;;;;;16.37;5.40;;;;;;;;;;6244059;22;20163;-90
2021/04/27 05:57:32;;;;;;;13.37;5.40;;;;;;;;;;6244012;23;20174;-92
2021/04/27 06:00:37;;;;;;;10.67;4.87;;;;;;;;;;6244543;23;20167;-91
2021/04/27 06:03:42;;;;;;;8.50;4.57;;;;;;;;;;6240720;23;20166;-91
2021/04/27 06:06:46;;;;;;;14.43;4.93;;;;;;;;;;6239848;23;20189;-90
2021/04/27 06:09:51;;;;;;;10.38;4.63;;;;;;;;;;6242716;22;20174;-90
2021/04/27 06:12:58;;;;;;;8.45;4.22;;;;;;;;;;6244065;23;20170;-92
2021/04/27 06:16:03;;;;;;;9.35;4.82;;;;;;;;;;6241561;23;20174;-89
2021/04/27 06:19:08;;;;;;;11.07;4.30;;;;;;;;;;6240900;23;20189;-90
2021/04/27 06:22:12;;;;;;;9.05;4.15;;;;;;;;;;6241179;22;20151;-92
2021/04/27 06:25:17;;;;;;;10.13;4.18;;;;;;;;;;6243332;22;20170;-90
2021/04/27 06:28:23;;;;;;;11.52;4.35;;;;;;;;;;6241901;23;20546;-91
2021/04/27 06:31:28;;;;;;;12.23;4.65;;;;;;;;;;6243405;22;20170;-91
2021/04/27 06:34:33;;;;;;;9.00;3.65;;;;;;;;;;6211108;23;20222;-91
2021/04/27 06:37:38;;;;;;;7.80;4.30;;;;;;;;;;6219088;23;20215;-92
2021/04/27 06:40:43;;;;;;;7.15;3.95;;;;;;;;;;6218318;22;20305;-92
2021/04/27 06:43:50;;;;;;;9.77;4.38;;;;;;;;;;6217978;22;20187;-91
2021/04/27 06:46:54;;;;;;;9.38;4.13;;;;;;;;;;6215169;23;20190;-91
2021/04/27 07:04:40;;;;;;;11.65;4.10;;;;;;;;;;6259987;22;20211;-92
2021/04/27 07:07:45;;;;;;;7.70;4.15;;;;;;;;;;6242958;23;20214;-90
2021/04/27 07:10:51;;;;;;;8.82;3.95;;;;;;;;;;6242777;23;20239;-90
2021/04/27 07:13:55;;;;;;;9.32;4.80;;;;;;;;;;6247735;22;20166;-89
2021/04/27 07:40:29;;;;;;;6.25;3.55;;;;;;;;;;6197567;22;20285;-89
2021/04/27 07:43:37;;;;;;;8.38;3.80;;;;;;;;;;6220567;23;20183;-88
2021/04/27 07:46:47;;;;;;;7.90;3.10;;;;;;;;;;6220799;22;20155;-92
2021/04/27 07:49:52;;;;;;;13.13;3.47;;;;;;;;;;6214221;23;20210;-91
2021/04/27 07:52:57;;;;;;;5.93;3.45;;;;;;;;;;6209047;23;20247;-91
2021/04/27 07:56:02;;;;;;;10.88;3.72;;;;;;;;;;6214645;22;20163;-90
2021/04/27 07:59:08;;;;;;;8.70;3.55;;;;;;;;;;6209898;23;20206;-92
2021/04/27 08:02:13;;;;;;;15.57;4.03;;;;;;;;;;6211316;23;20167;-92
2021/04/27 08:05:18;;;;;;;11.18;3.60;;;;;;;;;;6211689;23;20215;-90
2021/04/27 08:52:31;;;;;;;8.98;3.38;;;;;;;;;;6243223;22;20296;-92
2021/04/27 08:55:36;;;;;;;6.90;3.60;;;;;;;;;;6245902;23;20178;-88
2021/04/27 08:58:42;;;;;;;8.68;3.55;;;;;;;;;;6246036;23;20223;-90
2021/04/27 09:01:47;;;;;;;7.95;3.38;;;;;;;;;;6245942;22;20171;-89
2021/04/27 09:04:52;;;;;;;11.35;3.45;;;;;;;;;;6246174;23;20166;-92
2021/04/27 09:07:59;;;;;;;8.23;3.40;;;;;;;;;;6245598;23;20641;-91
2021/04/27 09:11:24;;;;;;;10.48;4.38;;;;;;;;;;6245588;23;20166;-92
2021/04/27 09:14:29;;;;;;;10.18;4.13;;;;;;;;;;6248107;23;20175;-92
2021/04/27 09:17:34;;;;;;;7.38;4.22;;;;;;;;;;6244038;23;20178;-89
2021/04/27 09:20:49;;;;;;;8.30;3.80;;;;;;;;;;6247275;23;20182;-92
2021/04/27 09:23:55;;;;;;;8.68;3.60;;;;;;;;;;6245065;23;20502;-91
2021/04/27 09:27:00;;;;;;;9.45;3.75;;;;;;;;;;6246113;23;20203;-90
2021/04/27 09:30:13;;;;;;;8.98;3.97;;;;;;;;;;6245990;22;20173;-90
2021/04/27 09:33:26;;;;;;;11.52;4.00;;;;;;;;;;6245948;22;20575;-90
2021/04/27 09:36:31;;;;;;;8.82;3.63;;;;;;;;;;6247786;22;20215;-92
2021/04/27 09:39:39;;;;;;;6.05;3.00;;;;;;;;;;6245440;23;20278;-93
2021/04/27 09:42:43;;;;;;;6.57;3.53;;;;;;;;;;6244928;23;20178;-91
2021/04/27 09:49:53;;;;;;;10.23;3.53;;;;;;;;;;6264669;23;20247;-92
2021/04/27 09:52:58;;;;;;;8.70;4.25;;;;;;;;;;6233141;23;20195;-91
2021/04/27 09:56:08;;;;;;;7.97;3.55;;;;;;;;;;6234370;22;20159;-91
2021/04/27 09:59:14;;;;;;;8.13;4.13;;;;;;;;;;6234664;22;20219;-90
2021/04/27 10:02:21;;;;;;;7.40;3.63;;;;;;;;;;6236360;23;20174;-92
2021/04/27 10:05:28;;;;;;;9.40;3.70;;;;;;;;;;6235507;23;20159;-93
2021/04/27 10:08:33;;;;;;;8.05;3.40;;;;;;;;;;6234806;23;20171;-89
2021/04/27 10:11:39;;;;;;;8.77;3.83;;;;;;;;;;6234598;23;20194;-90
2021/04/27 10:47:02;;;;;;;7.00;3.33;;;;;;;;;;6152189;22;20296;-89
2021/04/27 11:48:56;;;;;;;7.28;2.97;;;;;;;;;;6220792;22;20230;-88
2021/04/27 11:52:08;;;;;;;7.50;2.95;;;;;;;;;;6245322;22;20174;-90
2021/04/27 11:55:19;;;;;;;4.97;2.75;;;;;;;;;;6244655;23;20366;-90
2021/04/27 11:58:06;;;;;;;7.55;3.42;;;;;;;;;;6180724;22;20404;-90
2021/04/27 12:01:16;;;;;;;9.40;3.45;;;;;;;;;;6242392;23;20174;-91
2021/04/27 12:04:22;;;;;;;9.52;3.50;;;;;;;;;;6248525;23;20202;-91
2021/04/27 12:07:27;;;;;;;7.57;2.78;;;;;;;;;;6248728;23;20155;-92
2021/04/27 12:10:33;;;;;;;6.57;2.60;;;;;;;;;;6246619;23;20169;-90
2021/04/27 12:13:38;;;;;;;13.57;3.88;;;;;;;;;;6248606;22;20300;-92
2021/04/27 12:16:44;;;;;;;6.47;2.75;;;;;;;;;;6248302;22;20158;-91
2021/04/27 12:28:39;;;;;;;5.88;2.72;;;;;;;;;;6199253;22;20263;-91
2021/04/27 12:31:55;;;;;;;7.93;2.50;;;;;;;;;;6250327;23;20241;-89
2021/04/27 12:35:01;;;;;;;7.00;2.92;;;;;;;;;;6250682;23;20270;-92
2021/04/27 12:38:07;;;;;;;5.38;2.72;;;;;;;;;;6248430;23;20190;-90
2021/04/27 12:41:34;;;;;;;5.72;3.00;;;;;;;;;;6248447;23;20198;-90
2021/04/27 12:44:41;;;;;;;7.07;2.80;;;;;;;;;;6247246;23;20170;-91
2021/04/27 12:47:49;;;;;;;5.20;2.70;;;;;;;;;;6248987;23;20174;-90
2021/04/27 12:51:02;;;;;;;8.10;2.85;;;;;;;;;;6249955;23;20167;-91
2021/04/27 13:53:35;;;;;;;7.75;2.75;;;;;;;;;;6201816;23;20491;-90
2021/04/27 13:56:39;;;;;;;6.88;2.60;;;;;;;;;;6201315;23;20156;-92
2021/04/27 13:59:44;;;;;;;5.97;2.80;;;;;;;;;;6201711;23;20195;-92
2021/04/27 14:02:50;;;;;;;5.85;2.97;;;;;;;;;;6202878;23;20164;-90
2021/04/27 14:05:54;;;;;;;4.63;2.53;;;;;;;;;;6203024;23;20167;-89
2021/04/27 14:09:00;;;;;;;6.93;2.45;;;;;;;;;;6201709;23;20171;-92
2021/04/27 14:12:06;;;;;;;6.15;2.92;;;;;;;;;;6200865;23;20230;-92
2021/04/27 14:15:14;;;;;;;6.82;3.28;;;;;;;;;;6203236;23;20179;-90
2021/04/27 14:18:20;;;;;;;5.80;2.60;;;;;;;;;;6205169;23;20199;-91
2021/04/27 14:21:25;;;;;;;7.75;3.00;;;;;;;;;;6203547;23;20171;-91
2021/04/27 14:24:35;;;;;;;8.40;3.00;;;;;;;;;;6201487;23;20248;-92
2021/04/27 14:27:41;;;;;;;7.78;2.80;;;;;;;;;;6200245;23;20192;-91
2021/04/27 14:30:46;;;;;;;6.10;2.85;;;;;;;;;;6201453;23;20168;-92
2021/04/27 14:33:50;;;;;;;7.07;2.83;;;;;;;;;;6202922;23;20168;-91
2021/04/27 14:36:56;;;;;;;7.88;2.83;;;;;;;;;;6202743;23;20211;-91
2021/04/27 14:40:02;;;;;;;4.50;2.33;;;;;;;;;;6184569;23;20200;-90
2021/04/27 14:43:07;;;;;;;4.22;2.50;;;;;;;;;;6184673;23;20179;-89
2021/04/27 14:46:12;;;;;;;4.90;2.45;;;;;;;;;;6203496;23;20196;-91
2021/04/27 14:49:18;;;;;;;8.85;3.03;;;;;;;;;;6205044;23;20168;-90
2021/04/27 15:48:08;;;;;;;11.48;3.30;;;;;;;;;;6186271;22;20467;-89
2021/04/27 15:51:12;;;;;;;7.32;2.95;;;;;;;;;;6212693;23;20166;-91
2021/04/27 15:54:21;;;;;;;7.20;3.10;;;;;;;;;;6213710;23;20191;-90
2021/04/27 15:57:25;;;;;;;8.18;3.50;;;;;;;;;;6213109;23;20187;-92
2021/04/27 16:00:30;;;;;;;8.45;2.72;;;;;;;;;;6211186;23;20188;-90
2021/04/27 16:03:35;;;;;;;6.80;2.90;;;;;;;;;;6211683;23;20168;-89
2021/04/27 16:06:40;;;;;;;11.07;3.63;;;;;;;;;;6207910;23;20621;-88
2021/04/27 16:09:47;;;;;;;6.50;3.50;;;;;;;;;;6212962;23;20167;-90
2021/04/27 16:12:56;;;;;;;7.97;3.55;;;;;;;;;;6213129;23;20207;-89
2021/04/27 16:16:01;;;;;;;9.00;3.58;;;;;;;;;;6212295;23;20178;-91
2021/04/27 16:19:07;;;;;;;7.35;3.65;;;;;;;;;;6211558;23;20207;-91
2021/04/27 16:22:11;;;;;;;10.85;3.45;;;;;;;;;;6212681;23;20175;-90
2021/04/27 16:25:16;;;;;;;7.50;4.25;;;;;;;;;;6212612;23;20178;-90
2021/04/27 16:28:21;;;;;;;8.68;4.22;;;;;;;;;;6212553;23;20191;-92
2021/04/27 16:31:27;;;;;;;7.70;4.00;;;;;;;;;;6210106;23;20190;-92
2021/04/27 16:34:34;;;;;;;9.77;3.85;;;;;;;;;;6215031;23;20260;-93
2021/04/27 16:37:39;;;;;;;7.13;3.55;;;;;;;;;;6212668;23;20195;-94
2021/04/27 16:40:43;;;;;;;9.70;3.95;;;;;;;;;;6211931;23;20206;-91
2021/04/27 16:43:48;;;;;;;5.97;3.50;;;;;;;;;;6212587;23;20199;-91
2021/04/27 16:46:52;;;;;;;13.13;4.57;;;;;;;;;;6211365;23;20175;-93
2021/04/27 16:50:01;;;;;;;8.93;4.07;;;;;;;;;;6217710;22;20220;-91
2021/04/27 17:28:18;;;;;;;10.32;4.68;;;;;;;;;;6200879;22;20238;-90
2021/04/27 17:31:23;;;;;;;13.57;4.15;;;;;;;;;;6246652;23;20186;-89
2021/04/27 17:34:31;;;;;;;10.93;4.22;;;;;;;;;;6250625;23;20194;-91
2021/04/27 17:37:37;;;;;;;13.98;4.45;;;;;;;;;;6251651;23;20194;-87
2021/04/27 17:40:43;;;;;;;10.00;4.07;;;;;;;;;;6249938;23;20239;-90
2021/04/27 17:43:51;;;;;;;7.32;4.20;;;;;;;;;;6249483;23;20167;-90
2021/04/27 17:46:56;;;;;;;12.43;5.10;;;;;;;;;;6248952;23;20217;-89
2021/04/27 17:50:26;;;;;;;11.45;4.68;;;;;;;;;;6249092;23;20171;-88
2021/04/27 17:53:31;;;;;;;9.95;4.68;;;;;;;;;;6247761;23;20497;-90
2021/04/27 17:56:59;;;;;;;13.93;5.05;;;;;;;;;;6248738;23;20212;-92
2021/04/27 18:00:07;;;;;;;12.82;5.75;;;;;;;;;;6249647;23;20214;-92
2021/04/27 18:06:32;;;;;;;11.10;5.00;;;;;;;;;;6252740;22;20167;-89
2021/04/27 18:09:38;;;;;;;10.73;5.28;;;;;;;;;;6251939;23;20154;-88
2021/04/27 18:12:48;;;;;;;12.55;5.68;;;;;;;;;;6251411;22;20170;-91
2021/04/27 18:15:59;;;;;;;15.13;6.10;;;;;;;;;;6253221;23;20660;-90
2021/04/27 18:19:04;;;;;;;11.90;5.30;;;;;;;;;;6253024;23;20193;-90
2021/04/27 18:22:17;;;;;;;14.70;4.95;;;;;;;;;;6252484;22;20205;-90
2021/04/27 18:25:26;;;;;;;12.52;5.30;;;;;;;;;;6252679;22;20166;-91
2021/04/27 18:28:33;;;;;;;8.95;4.90;;;;;;;;;;6252676;22;20195;-91
2021/04/27 18:31:40;;;;;;;10.52;5.28;;;;;;;;;;6251938;23;20174;-91
2021/04/27 18:34:45;;;;;;;10.05;5.22;;;;;;;;;;6251354;23;20182;-91
2021/04/27 18:37:52;;;;;;;10.05;4.75;;;;;;;;;;6251530;23;20214;-89
2021/04/27 18:41:00;;;;;;;12.80;4.53;;;;;;;;;;6252213;23;20178;-89
2021/04/27 18:44:05;;;;;;;14.20;4.88;;;;;;;;;;6251976;23;20233;-90
2021/04/27 18:47:14;;;;;;;11.15;5.20;;;;;;;;;;6252183;23;20162;-89
2021/04/27 18:50:20;;;;;;;15.98;4.78;;;;;;;;;;6252085;22;20174;-90
2021/04/27 18:53:25;;;;;;;9.23;4.85;;;;;;;;;;6251949;22;20194;-89
2021/04/27 18:56:31;;;;;;;15.23;4.90;;;;;;;;;;6234996;23;20163;-89
2021/04/27 18:59:37;;;;;;;13.00;4.68;;;;;;;;;;6252015;23;20181;-91
2021/04/27 19:02:59;;;;;;;10.05;5.25;;;;;;;;;;6252278;22;20186;-90
2021/04/27 19:06:10;;;;;;;10.60;4.80;;;;;;;;;;6251614;23;20190;-90
2021/04/27 20:09:29;;;;;;;11.80;5.68;;;;;;;;;;6202755;22;20215;-90
2021/04/27 20:12:34;;;;;;;11.65;5.88;;;;;;;;;;6243784;23;20186;-89
2021/04/27 20:15:39;;;;;;;13.88;6.93;;;;;;;;;;6245992;23;20169;-89
2021/04/27 20:18:44;;;;;;;12.52;6.32;;;;;;;;;;6245099;23;20257;-90
2021/04/27 20:21:49;;;;;;;19.27;8.57;;;;;;;;;;6244960;23;20182;-89
2021/04/27 20:24:55;;;;;;;14.50;6.85;;;;;;;;;;6247627;23;20166;-91
2021/04/27 20:27:59;;;;;;;14.93;7.55;;;;;;;;;;6246750;23;20158;-89
2021/04/27 20:31:04;;;;;;;17.90;7.75;;;;;;;;;;6247129;22;20170;-90
2021/04/27 20:34:09;;;;;;;17.07;6.30;;;;;;;;;;6248465;23;20171;-91
2021/04/27 20:37:15;;;;;;;14.55;6.10;;;;;;;;;;6246656;23;20664;-91
2021/04/27 20:40:23;;;;;;;13.20;6.40;;;;;;;;;;6246320;23;20198;-91
2021/04/27 20:43:29;;;;;;;13.98;6.75;;;;;;;;;;6248341;23;20153;-90
2021/04/27 20:46:33;;;;;;;17.85;7.28;;;;;;;;;;6248617;23;20151;-89
2021/04/27 20:49:40;;;;;;;18.03;6.80;;;;;;;;;;6245818;23;20190;-90
2021/04/27 20:52:44;;;;;;;25.80;7.73;;;;;;;;;;6246393;23;20249;-91
2021/04/27 20:55:52;;;;;;;13.40;6.10;;;;;;;;;;6248639;23;20166;-91
2021/04/27 20:58:58;;;;;;;14.27;6.35;;;;;;;;;;6247306;23;20194;-90
2021/04/27 21:02:04;;;;;;;12.88;6.47;;;;;;;;;;6246501;23;20186;-90
2021/04/27 21:05:10;;;;;;;14.05;6.55;;;;;;;;;;6243688;23;20174;-89
2021/04/27 21:08:15;;;;;;;14.68;6.97;;;;;;;;;;6244592;23;20190;-92
2021/04/27 21:11:23;;;;;;;13.48;6.50;;;;;;;;;;6233972;23;20240;-90
2021/04/27 21:14:28;;;;;;;16.15;6.95;;;;;;;;;;6233257;23;20167;-90
2021/04/27 21:17:33;;;;;;;12.53;6.60;;;;;;;;;;6232080;23;20622;-89
2021/04/27 21:20:38;;;;;;;17.52;7.85;;;;;;;;;;6236569;23;20212;-90
2021/04/27 21:23:43;;;;;;;9.60;5.80;;;;;;;;;;6232919;23;20168;-91
2021/04/27 21:26:49;;;;;;;16.27;6.50;;;;;;;;;;6233858;23;20195;-90
2021/04/27 21:29:54;;;;;;;16.05;7.20;;;;;;;;;;6230729;23;20545;-91
2021/04/27 21:32:59;;;;;;;13.00;6.20;;;;;;;;;;6230624;23;20191;-92
2021/04/27 21:40:07;;;;;;;15.17;6.40;;;;;;;;;;6233074;23;20206;-91
2021/04/27 21:43:12;;;;;;;15.77;6.77;;;;;;;;;;6231766;23;20195;-91
2021/04/27 21:46:17;;;;;;;11.63;6.50;;;;;;;;;;6231267;23;20510;-90
2021/04/27 21:49:22;;;;;;;13.15;6.38;;;;;;;;;;6231564;23;20503;-92
2021/04/27 21:52:27;;;;;;;13.17;7.13;;;;;;;;;;6231676;22;20163;-91
2021/04/27 21:55:32;;;;;;;17.13;7.63;;;;;;;;;;6230783;23;20170;-91
2021/04/27 21:58:37;;;;;;;13.03;7.00;;;;;;;;;;6230443;23;20268;-92
2021/04/27 22:01:44;;;;;;;17.37;7.20;;;;;;;;;;6231006;23;20203;-92
2021/04/27 22:04:48;;;;;;;12.17;6.27;;;;;;;;;;6231054;23;20171;-90
2021/04/27 22:07:54;;;;;;;13.37;6.00;;;;;;;;;;6232057;23;20175;-91
2021/04/27 22:10:58;;;;;;;13.07;6.63;;;;;;;;;;6232171;23;20190;-92
2021/04/27 22:14:05;;;;;;;12.93;6.83;;;;;;;;;;6230954;23;20180;-92
2021/04/27 22:17:09;;;;;;;14.40;6.90;;;;;;;;;;6230416;23;20514;-91
2021/04/27 22:20:15;;;;;;;17.60;7.30;;;;;;;;;;6231540;23;20245;-91
2021/04/27 22:23:20;;;;;;;16.33;6.73;;;;;;;;;;6231534;23;20150;-91
2021/04/27 22:26:25;;;;;;;14.67;6.13;;;;;;;;;;6231752;23;20174;-90
2021/04/27 22:29:31;;;;;;;12.43;6.37;;;;;;;;;;6231437;22;20630;-90
2021/04/27 22:32:36;;;;;;;12.80;6.47;;;;;;;;;;6230395;23;20167;-92
2021/04/27 22:35:41;;;;;;;12.90;6.63;;;;;;;;;;6230704;23;20205;-90
2021/04/27 22:38:46;;;;;;;12.00;6.77;;;;;;;;;;6231713;23;20195;-91
2021/04/27 22:41:51;;;;;;;12.77;6.50;;;;;;;;;;6230510;23;20168;-90
2021/04/27 22:44:56;;;;;;;16.03;6.77;;;;;;;;;;6230015;23;20175;-92
2021/04/27 22:48:06;;;;;;;12.20;6.37;;;;;;;;;;6229517;23;20179;-92
2021/04/27 22:51:10;;;;;;;13.50;6.60;;;;;;;;;;6230082;23;20166;-90
2021/04/27 22:54:15;;;;;;;14.77;6.77;;;;;;;;;;6230694;23;20155;-92
2021/04/27 22:57:20;;;;;;;15.13;6.80;;;;;;;;;;6231712;23;20179;-91
2021/04/27 23:00:26;;;;;;;13.40;6.77;;;;;;;;;;6229941;23;20195;-90
2021/04/27 23:03:31;;;;;;;15.30;7.90;;;;;;;;;;6231114;23;20199;-91
2021/04/27 23:06:36;;;;;;;12.57;6.83;;;;;;;;;;6232459;23;20220;-91
2021/04/27 23:09:41;;;;;;;13.77;7.13;;;;;;;;;;6239735;23;20186;-92
2021/04/27 23:12:46;;;;;;;14.10;6.83;;;;;;;;;;6244073;22;20186;-91
2021/04/27 23:15:51;;;;;;;13.23;6.77;;;;;;;;;;6245064;23;20253;-92
2021/04/27 23:18:55;;;;;;;16.70;6.80;;;;;;;;;;6243982;23;20198;-91
2021/04/27 23:22:00;;;;;;;14.27;6.40;;;;;;;;;;6244067;23;20190;-92
2021/04/27 23:25:05;;;;;;;18.57;7.23;;;;;;;;;;6243285;23;20239;-89
2021/04/27 23:28:10;;;;;;;13.03;6.33;;;;;;;;;;6243808;23;20171;-91
2021/04/27 23:31:16;;;;;;;11.60;6.50;;;;;;;;;;6242787;23;20166;-91
2021/04/27 23:34:20;;;;;;;15.07;6.60;;;;;;;;;;6243366;23;20170;-91
2021/04/27 23:37:25;;;;;;;13.77;7.20;;;;;;;;;;6242049;23;20163;-87
2021/04/27 23:40:29;;;;;;;12.70;6.67;;;;;;;;;;6243302;22;20217;-92
2021/04/27 23:43:35;;;;;;;16.10;6.70;;;;;;;;;;6244236;22;20166;-91
2021/04/27 23:46:41;;;;;;;12.73;6.07;;;;;;;;;;6243840;22;20165;-91
2021/04/27 23:49:46;;;;;;;14.10;7.17;;;;;;;;;;6245325;23;20169;-91
2021/04/27 23:52:52;;;;;;;12.87;6.90;;;;;;;;;;6244814;23;20198;-91
2021/04/27 23:55:57;;;;;;;13.93;6.77;;;;;;;;;;6244323;23;20151;-91
2021/04/27 23:59:02;;;;;;;13.67;6.37;;;;;;;;;;6244625;23;20197;-91
